sensor_id;sensor_type;location;lat;lon;timestamp;P1;durP1;ratioP1;P2;durP2;ratioP2
39300;SDS011;25019;42.626;23.380;2022-11-21T00:00:22;13.30;;;8.87;;
39300;SDS011;25019;42.626;23.380;2022-11-21T00:02:48;13.27;;;8.63;;
39300;SDS011;25019;42.626;23.380;2022-11-21T00:05:13;12.17;;;7.87;;
39300;SDS011;25019;42.626;23.380;2022-11-21T00:07:39;13.97;;;8.13;;
39300;SDS011;25019;42.626;23.380;2022-11-21T00:10:05;13.60;;;7.13;;
39300;SDS011;25019;42.626;23.380;2022-11-21T00:12:31;10.40;;;7.27;;
39300;SDS011;25019;42.626;23.380;2022-11-21T00:14:57;10.57;;;6.43;;
39300;SDS011;25019;42.626;23.380;2022-11-21T00:17:22;7.33;;;4.60;;
39300;SDS011;25019;42.626;23.380;2022-11-21T00:19:48;9.77;;;5.90;;
39300;SDS011;25019;42.626;23.380;2022-11-21T00:22:14;9.20;;;5.40;;
39300;SDS011;25019;42.626;23.380;2022-11-21T00:24:39;7.03;;;4.97;;
39300;SDS011;25019;42.626;23.380;2022-11-21T00:27:05;9.00;;;5.23;;
39300;SDS011;25019;42.626;23.380;2022-11-21T00:29:31;9.17;;;4.57;;
39300;SDS011;25019;42.626;23.380;2022-11-21T00:31:56;7.30;;;4.50;;
39300;SDS011;25019;42.626;23.380;2022-11-21T00:34:22;4.67;;;3.20;;
39300;SDS011;25019;42.626;23.380;2022-11-21T00:36:47;5.10;;;2.90;;
39300;SDS011;25019;42.626;23.380;2022-11-21T00:39:13;8.63;;;2.90;;
39300;SDS011;25019;42.626;23.380;2022-11-21T00:41:39;3.83;;;2.43;;
39300;SDS011;25019;42.626;23.380;2022-11-21T00:44:04;4.17;;;2.37;;
39300;SDS011;25019;42.626;23.380;2022-11-21T00:46:30;4.73;;;2.40;;
39300;SDS011;25019;42.626;23.380;2022-11-21T00:48:56;5.50;;;2.13;;
39300;SDS011;25019;42.626;23.380;2022-11-21T00:51:23;3.63;;;1.80;;
39300;SDS011;25019;42.626;23.380;2022-11-21T00:53:48;4.53;;;1.73;;
39300;SDS011;25019;42.626;23.380;2022-11-21T00:56:14;4.27;;;0.90;;
39300;SDS011;25019;42.626;23.380;2022-11-21T00:58:41;2.20;;;0.83;;
39300;SDS011;25019;42.626;23.380;2022-11-21T01:01:14;1.53;;;0.90;;
39300;SDS011;25019;42.626;23.380;2022-11-21T01:03:40;2.73;;;0.93;;
39300;SDS011;25019;42.626;23.380;2022-11-21T01:06:07;2.10;;;0.90;;
39300;SDS011;25019;42.626;23.380;2022-11-21T01:08:35;4.03;;;1.27;;
39300;SDS011;25019;42.626;23.380;2022-11-21T01:11:07;5.00;;;2.97;;
39300;SDS011;25019;42.626;23.380;2022-11-21T01:13:34;5.03;;;3.60;;
39300;SDS011;25019;42.626;23.380;2022-11-21T01:18:34;9.07;;;5.20;;
39300;SDS011;25019;42.626;23.380;2022-11-21T01:21:00;9.13;;;5.37;;
39300;SDS011;25019;42.626;23.380;2022-11-21T01:23:28;7.87;;;5.17;;
39300;SDS011;25019;42.626;23.380;2022-11-21T01:25:53;7.50;;;5.03;;
39300;SDS011;25019;42.626;23.380;2022-11-21T01:28:19;4.40;;;3.10;;
39300;SDS011;25019;42.626;23.380;2022-11-21T01:30:45;4.07;;;2.10;;
39300;SDS011;25019;42.626;23.380;2022-11-21T01:33:10;2.70;;;1.67;;
39300;SDS011;25019;42.626;23.380;2022-11-21T01:35:36;4.93;;;2.10;;
39300;SDS011;25019;42.626;23.380;2022-11-21T01:38:02;3.83;;;2.13;;
39300;SDS011;25019;42.626;23.380;2022-11-21T01:40:27;3.93;;;2.00;;
39300;SDS011;25019;42.626;23.380;2022-11-21T01:43:01;5.17;;;2.27;;
39300;SDS011;25019;42.626;23.380;2022-11-21T01:48:13;2.70;;;1.60;;
39300;SDS011;25019;42.626;23.380;2022-11-21T01:50:38;4.50;;;1.70;;
39300;SDS011;25019;42.626;23.380;2022-11-21T01:53:04;3.93;;;1.60;;
39300;SDS011;25019;42.626;23.380;2022-11-21T01:55:30;2.47;;;1.20;;
39300;SDS011;25019;42.626;23.380;2022-11-21T01:57:57;3.37;;;0.83;;
39300;SDS011;25019;42.626;23.380;2022-11-21T02:00:23;1.50;;;0.80;;
39300;SDS011;25019;42.626;23.380;2022-11-21T02:02:58;2.80;;;1.30;;
39300;SDS011;25019;42.626;23.380;2022-11-21T02:05:27;2.10;;;1.10;;
39300;SDS011;25019;42.626;23.380;2022-11-21T02:07:56;2.03;;;0.77;;
39300;SDS011;25019;42.626;23.380;2022-11-21T02:10:26;1.90;;;0.70;;
39300;SDS011;25019;42.626;23.380;2022-11-21T02:12:53;3.27;;;0.87;;
39300;SDS011;25019;42.626;23.380;2022-11-21T02:15:21;1.00;;;0.70;;
39300;SDS011;25019;42.626;23.380;2022-11-21T02:17:49;1.27;;;0.90;;
39300;SDS011;25019;42.626;23.380;2022-11-21T02:20:15;2.20;;;0.87;;
39300;SDS011;25019;42.626;23.380;2022-11-21T02:25:35;0.83;;;0.73;;
39300;SDS011;25019;42.626;23.380;2022-11-21T02:28:03;1.70;;;0.77;;
39300;SDS011;25019;42.626;23.380;2022-11-21T02:30:32;1.67;;;0.97;;
39300;SDS011;25019;42.626;23.380;2022-11-21T02:33:03;2.67;;;0.83;;
39300;SDS011;25019;42.626;23.380;2022-11-21T02:35:29;1.83;;;0.80;;
39300;SDS011;25019;42.626;23.380;2022-11-21T02:38:03;2.63;;;0.90;;
39300;SDS011;25019;42.626;23.380;2022-11-21T02:40:33;1.63;;;0.80;;
39300;SDS011;25019;42.626;23.380;2022-11-21T02:43:15;3.63;;;1.00;;
39300;SDS011;25019;42.626;23.380;2022-11-21T02:45:44;2.83;;;1.40;;
39300;SDS011;25019;42.626;23.380;2022-11-21T02:48:11;1.50;;;1.10;;
39300;SDS011;25019;42.626;23.380;2022-11-21T02:50:38;2.00;;;1.23;;
39300;SDS011;25019;42.626;23.380;2022-11-21T02:53:08;1.50;;;1.30;;
39300;SDS011;25019;42.626;23.380;2022-11-21T02:55:35;3.73;;;1.60;;
39300;SDS011;25019;42.626;23.380;2022-11-21T02:58:02;3.27;;;1.77;;
39300;SDS011;25019;42.626;23.380;2022-11-21T03:00:28;3.83;;;1.33;;
39300;SDS011;25019;42.626;23.380;2022-11-21T03:02:54;1.50;;;1.20;;
39300;SDS011;25019;42.626;23.380;2022-11-21T03:05:20;2.80;;;1.57;;
39300;SDS011;25019;42.626;23.380;2022-11-21T03:07:46;2.77;;;1.50;;
39300;SDS011;25019;42.626;23.380;2022-11-21T03:10:12;3.53;;;1.50;;
39300;SDS011;25019;42.626;23.380;2022-11-21T03:12:39;1.60;;;1.10;;
39300;SDS011;25019;42.626;23.380;2022-11-21T03:15:07;2.43;;;1.10;;
39300;SDS011;25019;42.626;23.380;2022-11-21T03:17:34;1.93;;;1.13;;
39300;SDS011;25019;42.626;23.380;2022-11-21T03:20:00;3.93;;;1.23;;
39300;SDS011;25019;42.626;23.380;2022-11-21T03:22:26;5.00;;;1.00;;
39300;SDS011;25019;42.626;23.380;2022-11-21T03:24:52;2.73;;;1.00;;
39300;SDS011;25019;42.626;23.380;2022-11-21T03:27:18;2.97;;;0.93;;
39300;SDS011;25019;42.626;23.380;2022-11-21T03:29:44;3.73;;;1.00;;
39300;SDS011;25019;42.626;23.380;2022-11-21T03:32:09;5.00;;;1.30;;
39300;SDS011;25019;42.626;23.380;2022-11-21T03:34:35;3.80;;;1.30;;
39300;SDS011;25019;42.626;23.380;2022-11-21T03:37:01;3.50;;;1.17;;
39300;SDS011;25019;42.626;23.380;2022-11-21T03:39:28;3.07;;;0.90;;
39300;SDS011;25019;42.626;23.380;2022-11-21T03:41:53;4.20;;;1.57;;
39300;SDS011;25019;42.626;23.380;2022-11-21T03:44:19;2.10;;;1.10;;
39300;SDS011;25019;42.626;23.380;2022-11-21T03:46:45;2.50;;;1.10;;
39300;SDS011;25019;42.626;23.380;2022-11-21T03:49:11;1.97;;;1.00;;
39300;SDS011;25019;42.626;23.380;2022-11-21T03:51:38;3.53;;;1.00;;
39300;SDS011;25019;42.626;23.380;2022-11-21T03:54:04;5.17;;;2.40;;
39300;SDS011;25019;42.626;23.380;2022-11-21T03:56:31;2.53;;;1.00;;
39300;SDS011;25019;42.626;23.380;2022-11-21T03:58:57;4.57;;;1.40;;
39300;SDS011;25019;42.626;23.380;2022-11-21T04:01:23;4.73;;;1.30;;
39300;SDS011;25019;42.626;23.380;2022-11-21T04:03:49;1.73;;;0.87;;
39300;SDS011;25019;42.626;23.380;2022-11-21T04:06:16;2.73;;;1.10;;
39300;SDS011;25019;42.626;23.380;2022-11-21T04:08:43;3.67;;;1.53;;
39300;SDS011;25019;42.626;23.380;2022-11-21T04:11:09;4.33;;;1.40;;
39300;SDS011;25019;42.626;23.380;2022-11-21T04:13:34;5.70;;;1.17;;
39300;SDS011;25019;42.626;23.380;2022-11-21T04:16:00;3.97;;;1.40;;
39300;SDS011;25019;42.626;23.380;2022-11-21T04:18:26;2.23;;;1.47;;
39300;SDS011;25019;42.626;23.380;2022-11-21T04:20:58;6.23;;;1.40;;
39300;SDS011;25019;42.626;23.380;2022-11-21T04:23:25;6.77;;;1.87;;
39300;SDS011;25019;42.626;23.380;2022-11-21T04:25:51;2.60;;;1.30;;
39300;SDS011;25019;42.626;23.380;2022-11-21T04:28:17;4.30;;;1.33;;
39300;SDS011;25019;42.626;23.380;2022-11-21T04:30:43;5.47;;;1.67;;
39300;SDS011;25019;42.626;23.380;2022-11-21T04:33:09;4.07;;;1.60;;
39300;SDS011;25019;42.626;23.380;2022-11-21T04:35:36;3.73;;;1.47;;
39300;SDS011;25019;42.626;23.380;2022-11-21T04:38:02;2.70;;;1.40;;
39300;SDS011;25019;42.626;23.380;2022-11-21T04:40:27;2.57;;;1.50;;
39300;SDS011;25019;42.626;23.380;2022-11-21T04:42:53;3.03;;;1.57;;
39300;SDS011;25019;42.626;23.380;2022-11-21T04:45:19;5.17;;;2.10;;
39300;SDS011;25019;42.626;23.380;2022-11-21T04:47:45;3.33;;;1.70;;
39300;SDS011;25019;42.626;23.380;2022-11-21T04:50:12;3.67;;;1.30;;
39300;SDS011;25019;42.626;23.380;2022-11-21T04:52:39;4.73;;;1.50;;
39300;SDS011;25019;42.626;23.380;2022-11-21T04:55:06;4.53;;;1.70;;
39300;SDS011;25019;42.626;23.380;2022-11-21T04:57:32;5.20;;;2.23;;
39300;SDS011;25019;42.626;23.380;2022-11-21T04:59:59;3.17;;;1.87;;
39300;SDS011;25019;42.626;23.380;2022-11-21T05:02:24;3.67;;;2.07;;
39300;SDS011;25019;42.626;23.380;2022-11-21T05:04:50;3.03;;;1.63;;
39300;SDS011;25019;42.626;23.380;2022-11-21T05:07:16;2.70;;;1.43;;
39300;SDS011;25019;42.626;23.380;2022-11-21T05:09:42;2.83;;;1.40;;
39300;SDS011;25019;42.626;23.380;2022-11-21T05:12:10;4.00;;;1.87;;
39300;SDS011;25019;42.626;23.380;2022-11-21T05:14:55;4.03;;;2.47;;
39300;SDS011;25019;42.626;23.380;2022-11-21T05:17:21;4.07;;;2.07;;
39300;SDS011;25019;42.626;23.380;2022-11-21T05:19:47;3.97;;;1.80;;
39300;SDS011;25019;42.626;23.380;2022-11-21T05:22:12;2.43;;;1.60;;
39300;SDS011;25019;42.626;23.380;2022-11-21T05:24:38;2.60;;;1.60;;
39300;SDS011;25019;42.626;23.380;2022-11-21T05:27:04;3.97;;;1.70;;
39300;SDS011;25019;42.626;23.380;2022-11-21T05:29:30;7.23;;;1.63;;
39300;SDS011;25019;42.626;23.380;2022-11-21T05:31:56;4.27;;;1.50;;
39300;SDS011;25019;42.626;23.380;2022-11-21T05:34:21;3.73;;;1.50;;
39300;SDS011;25019;42.626;23.380;2022-11-21T05:36:47;7.57;;;2.70;;
39300;SDS011;25019;42.626;23.380;2022-11-21T05:39:13;4.97;;;1.93;;
39300;SDS011;25019;42.626;23.380;2022-11-21T05:41:40;3.90;;;1.33;;
39300;SDS011;25019;42.626;23.380;2022-11-21T05:44:05;3.20;;;0.80;;
39300;SDS011;25019;42.626;23.380;2022-11-21T05:46:31;3.30;;;1.70;;
39300;SDS011;25019;42.626;23.380;2022-11-21T05:48:57;2.93;;;1.60;;
39300;SDS011;25019;42.626;23.380;2022-11-21T05:51:22;4.03;;;0.70;;
39300;SDS011;25019;42.626;23.380;2022-11-21T05:53:48;2.23;;;0.83;;
39300;SDS011;25019;42.626;23.380;2022-11-21T05:56:15;1.90;;;1.00;;
39300;SDS011;25019;42.626;23.380;2022-11-21T05:58:43;5.70;;;1.60;;
39300;SDS011;25019;42.626;23.380;2022-11-21T06:01:10;4.17;;;1.40;;
39300;SDS011;25019;42.626;23.380;2022-11-21T06:03:39;3.77;;;1.80;;
39300;SDS011;25019;42.626;23.380;2022-11-21T06:08:36;6.37;;;1.90;;
39300;SDS011;25019;42.626;23.380;2022-11-21T06:11:06;4.83;;;2.00;;
39300;SDS011;25019;42.626;23.380;2022-11-21T06:13:32;4.50;;;1.80;;
39300;SDS011;25019;42.626;23.380;2022-11-21T06:16:02;4.30;;;2.43;;
39300;SDS011;25019;42.626;23.380;2022-11-21T06:18:37;3.70;;;1.67;;
39300;SDS011;25019;42.626;23.380;2022-11-21T06:21:04;2.40;;;1.40;;
39300;SDS011;25019;42.626;23.380;2022-11-21T06:23:36;2.40;;;1.00;;
39300;SDS011;25019;42.626;23.380;2022-11-21T06:26:03;2.67;;;1.60;;
39300;SDS011;25019;42.626;23.380;2022-11-21T06:28:31;4.60;;;1.73;;
39300;SDS011;25019;42.626;23.380;2022-11-21T06:31:04;5.30;;;1.30;;
39300;SDS011;25019;42.626;23.380;2022-11-21T06:33:32;3.20;;;1.60;;
39300;SDS011;25019;42.626;23.380;2022-11-21T06:36:02;3.40;;;1.20;;
39300;SDS011;25019;42.626;23.380;2022-11-21T06:38:29;2.20;;;1.03;;
39300;SDS011;25019;42.626;23.380;2022-11-21T06:40:54;2.77;;;1.00;;
39300;SDS011;25019;42.626;23.380;2022-11-21T06:43:20;1.33;;;0.80;;
39300;SDS011;25019;42.626;23.380;2022-11-21T06:45:46;2.33;;;1.23;;
39300;SDS011;25019;42.626;23.380;2022-11-21T06:48:11;4.07;;;1.33;;
39300;SDS011;25019;42.626;23.380;2022-11-21T06:50:37;2.10;;;0.90;;
39300;SDS011;25019;42.626;23.380;2022-11-21T06:53:02;2.33;;;1.17;;
39300;SDS011;25019;42.626;23.380;2022-11-21T06:55:29;2.43;;;1.00;;
39300;SDS011;25019;42.626;23.380;2022-11-21T06:57:58;2.47;;;1.07;;
39300;SDS011;25019;42.626;23.380;2022-11-21T07:00:25;1.40;;;0.80;;
39300;SDS011;25019;42.626;23.380;2022-11-21T07:02:52;1.63;;;0.90;;
39300;SDS011;25019;42.626;23.380;2022-11-21T07:05:19;2.83;;;1.00;;
39300;SDS011;25019;42.626;23.380;2022-11-21T07:07:45;1.23;;;0.80;;
39300;SDS011;25019;42.626;23.380;2022-11-21T07:10:10;0.80;;;0.60;;
39300;SDS011;25019;42.626;23.380;2022-11-21T07:12:36;1.37;;;0.80;;
39300;SDS011;25019;42.626;23.380;2022-11-21T07:15:21;1.30;;;0.77;;
39300;SDS011;25019;42.626;23.380;2022-11-21T07:17:46;0.70;;;0.60;;
39300;SDS011;25019;42.626;23.380;2022-11-21T07:20:12;2.40;;;1.10;;
39300;SDS011;25019;42.626;23.380;2022-11-21T07:22:38;1.17;;;1.00;;
39300;SDS011;25019;42.626;23.380;2022-11-21T07:25:04;0.60;;;0.60;;
39300;SDS011;25019;42.626;23.380;2022-11-21T07:27:30;1.53;;;0.87;;
39300;SDS011;25019;42.626;23.380;2022-11-21T07:29:56;1.10;;;1.00;;
39300;SDS011;25019;42.626;23.380;2022-11-21T07:32:23;1.20;;;0.90;;
39300;SDS011;25019;42.626;23.380;2022-11-21T07:34:49;1.30;;;0.60;;
39300;SDS011;25019;42.626;23.380;2022-11-21T07:37:15;0.90;;;0.80;;
39300;SDS011;25019;42.626;23.380;2022-11-21T07:39:41;1.03;;;0.90;;
39300;SDS011;25019;42.626;23.380;2022-11-21T07:42:06;1.40;;;0.83;;
39300;SDS011;25019;42.626;23.380;2022-11-21T07:44:34;0.97;;;0.77;;
39300;SDS011;25019;42.626;23.380;2022-11-21T07:47:00;3.13;;;1.80;;
39300;SDS011;25019;42.626;23.380;2022-11-21T07:49:26;1.23;;;0.80;;
39300;SDS011;25019;42.626;23.380;2022-11-21T07:51:52;1.70;;;0.90;;
39300;SDS011;25019;42.626;23.380;2022-11-21T07:54:18;1.20;;;0.70;;
39300;SDS011;25019;42.626;23.380;2022-11-21T07:56:43;1.77;;;1.03;;
39300;SDS011;25019;42.626;23.380;2022-11-21T07:59:09;1.10;;;1.00;;
39300;SDS011;25019;42.626;23.380;2022-11-21T08:01:35;3.57;;;1.20;;
39300;SDS011;25019;42.626;23.380;2022-11-21T08:04:00;1.80;;;1.00;;
39300;SDS011;25019;42.626;23.380;2022-11-21T08:06:26;1.07;;;0.93;;
39300;SDS011;25019;42.626;23.380;2022-11-21T08:08:52;1.40;;;1.30;;
39300;SDS011;25019;42.626;23.380;2022-11-21T08:11:18;1.63;;;1.03;;
39300;SDS011;25019;42.626;23.380;2022-11-21T08:13:44;1.07;;;0.83;;
39300;SDS011;25019;42.626;23.380;2022-11-21T08:16:09;1.73;;;1.07;;
39300;SDS011;25019;42.626;23.380;2022-11-21T08:18:35;2.17;;;1.50;;
39300;SDS011;25019;42.626;23.380;2022-11-21T08:21:01;1.43;;;1.00;;
39300;SDS011;25019;42.626;23.380;2022-11-21T08:23:27;1.97;;;1.40;;
39300;SDS011;25019;42.626;23.380;2022-11-21T08:25:53;1.40;;;0.97;;
39300;SDS011;25019;42.626;23.380;2022-11-21T08:28:19;1.03;;;0.80;;
39300;SDS011;25019;42.626;23.380;2022-11-21T08:30:45;1.73;;;1.20;;
39300;SDS011;25019;42.626;23.380;2022-11-21T08:33:10;1.33;;;1.00;;
39300;SDS011;25019;42.626;23.380;2022-11-21T08:35:36;0.90;;;0.90;;
39300;SDS011;25019;42.626;23.380;2022-11-21T08:38:02;0.90;;;0.90;;
39300;SDS011;25019;42.626;23.380;2022-11-21T08:40:29;1.30;;;1.03;;
39300;SDS011;25019;42.626;23.380;2022-11-21T08:42:58;1.13;;;0.90;;
39300;SDS011;25019;42.626;23.380;2022-11-21T08:45:32;1.50;;;1.40;;
39300;SDS011;25019;42.626;23.380;2022-11-21T08:47:59;1.27;;;1.03;;
39300;SDS011;25019;42.626;23.380;2022-11-21T08:50:24;1.40;;;1.00;;
39300;SDS011;25019;42.626;23.380;2022-11-21T08:52:52;1.10;;;0.80;;
39300;SDS011;25019;42.626;23.380;2022-11-21T08:55:18;2.77;;;1.30;;
39300;SDS011;25019;42.626;23.380;2022-11-21T08:57:43;2.93;;;2.17;;
39300;SDS011;25019;42.626;23.380;2022-11-21T09:00:09;2.67;;;1.80;;
39300;SDS011;25019;42.626;23.380;2022-11-21T09:02:38;2.67;;;1.67;;
39300;SDS011;25019;42.626;23.380;2022-11-21T09:05:04;2.00;;;1.23;;
39300;SDS011;25019;42.626;23.380;2022-11-21T09:07:30;3.07;;;1.20;;
39300;SDS011;25019;42.626;23.380;2022-11-21T09:09:56;2.17;;;1.27;;
39300;SDS011;25019;42.626;23.380;2022-11-21T09:12:21;3.53;;;1.53;;
39300;SDS011;25019;42.626;23.380;2022-11-21T09:14:47;1.50;;;1.07;;
39300;SDS011;25019;42.626;23.380;2022-11-21T09:17:31;5.77;;;2.37;;
39300;SDS011;25019;42.626;23.380;2022-11-21T09:20:15;1.70;;;1.40;;
39300;SDS011;25019;42.626;23.380;2022-11-21T09:22:41;3.87;;;1.63;;
39300;SDS011;25019;42.626;23.380;2022-11-21T09:25:06;1.70;;;1.50;;
39300;SDS011;25019;42.626;23.380;2022-11-21T09:27:32;1.73;;;1.10;;
39300;SDS011;25019;42.626;23.380;2022-11-21T09:29:58;0.80;;;0.70;;
39300;SDS011;25019;42.626;23.380;2022-11-21T09:32:24;2.40;;;1.30;;
39300;SDS011;25019;42.626;23.380;2022-11-21T09:34:49;1.80;;;1.17;;
39300;SDS011;25019;42.626;23.380;2022-11-21T09:37:15;3.87;;;1.77;;
39300;SDS011;25019;42.626;23.380;2022-11-21T09:39:41;3.20;;;1.80;;
39300;SDS011;25019;42.626;23.380;2022-11-21T09:47:45;1.17;;;1.07;;
39300;SDS011;25019;42.626;23.380;2022-11-21T09:55:45;2.10;;;1.90;;
39300;SDS011;25019;42.626;23.380;2022-11-21T10:01:10;1.90;;;1.60;;
39300;SDS011;25019;42.626;23.380;2022-11-21T10:03:44;1.90;;;1.80;;
39300;SDS011;25019;42.626;23.380;2022-11-21T10:06:15;2.00;;;1.80;;
39300;SDS011;25019;42.626;23.380;2022-11-21T10:09:06;1.90;;;1.80;;
39300;SDS011;25019;42.626;23.380;2022-11-21T10:15:32;2.57;;;2.37;;
39300;SDS011;25019;42.626;23.380;2022-11-21T10:18:18;2.23;;;2.03;;
39300;SDS011;25019;42.626;23.380;2022-11-21T10:29:28;2.47;;;2.17;;
39300;SDS011;25019;42.626;23.380;2022-11-21T10:32:24;3.20;;;2.30;;
39300;SDS011;25019;42.626;23.380;2022-11-21T10:34:55;3.23;;;2.00;;
39300;SDS011;25019;42.626;23.380;2022-11-21T10:37:38;3.37;;;2.90;;
39300;SDS011;25019;42.626;23.380;2022-11-21T10:43:38;3.93;;;3.23;;
39300;SDS011;25019;42.626;23.380;2022-11-21T10:46:28;3.60;;;3.30;;
39300;SDS011;25019;42.626;23.380;2022-11-21T10:48:58;4.77;;;3.77;;
39300;SDS011;25019;42.626;23.380;2022-11-21T10:54:14;5.90;;;4.37;;
39300;SDS011;25019;42.626;23.380;2022-11-21T10:57:04;6.17;;;4.23;;
39300;SDS011;25019;42.626;23.380;2022-11-21T10:59:30;7.20;;;5.50;;
39300;SDS011;25019;42.626;23.380;2022-11-21T11:02:42;9.10;;;5.17;;
39300;SDS011;25019;42.626;23.380;2022-11-21T11:04:47;5.10;;;4.43;;
39300;SDS011;25019;42.626;23.380;2022-11-21T11:07:20;4.40;;;4.00;;
39300;SDS011;25019;42.626;23.380;2022-11-21T11:09:50;4.60;;;3.90;;
39300;SDS011;25019;42.626;23.380;2022-11-21T11:12:30;4.87;;;4.13;;
39300;SDS011;25019;42.626;23.380;2022-11-21T11:15:24;4.73;;;3.77;;
39300;SDS011;25019;42.626;23.380;2022-11-21T11:17:55;5.80;;;4.47;;
39300;SDS011;25019;42.626;23.380;2022-11-21T11:23:22;6.13;;;3.50;;
39300;SDS011;25019;42.626;23.380;2022-11-21T11:25:51;6.37;;;4.67;;
39300;SDS011;25019;42.626;23.380;2022-11-21T11:28:17;4.70;;;4.20;;
39300;SDS011;25019;42.626;23.380;2022-11-21T11:30:48;5.77;;;4.57;;
39300;SDS011;25019;42.626;23.380;2022-11-21T11:33:35;6.27;;;4.33;;
39300;SDS011;25019;42.626;23.380;2022-11-21T11:36:09;6.37;;;4.80;;
39300;SDS011;25019;42.626;23.380;2022-11-21T11:38:45;6.07;;;5.00;;
39300;SDS011;25019;42.626;23.380;2022-11-21T11:42:19;5.70;;;4.67;;
39300;SDS011;25019;42.626;23.380;2022-11-21T11:47:58;5.97;;;4.87;;
39300;SDS011;25019;42.626;23.380;2022-11-21T11:50:45;6.03;;;4.20;;
39300;SDS011;25019;42.626;23.380;2022-11-21T11:53:18;4.43;;;4.00;;
39300;SDS011;25019;42.626;23.380;2022-11-21T12:00:56;5.23;;;4.57;;
39300;SDS011;25019;42.626;23.380;2022-11-21T12:03:23;5.63;;;4.50;;
39300;SDS011;25019;42.626;23.380;2022-11-21T12:06:03;4.57;;;4.07;;
39300;SDS011;25019;42.626;23.380;2022-11-21T12:11:12;4.07;;;3.67;;
39300;SDS011;25019;42.626;23.380;2022-11-21T12:17:30;4.93;;;3.40;;
39300;SDS011;25019;42.626;23.380;2022-11-21T12:20:03;3.47;;;2.77;;
39300;SDS011;25019;42.626;23.380;2022-11-21T12:22:38;4.27;;;3.20;;
39300;SDS011;25019;42.626;23.380;2022-11-21T12:25:09;3.83;;;3.43;;
39300;SDS011;25019;42.626;23.380;2022-11-21T12:27:36;5.50;;;3.80;;
39300;SDS011;25019;42.626;23.380;2022-11-21T12:33:05;3.50;;;3.10;;
39300;SDS011;25019;42.626;23.380;2022-11-21T12:35:53;3.53;;;2.90;;
39300;SDS011;25019;42.626;23.380;2022-11-21T12:38:48;4.57;;;3.53;;
39300;SDS011;25019;42.626;23.380;2022-11-21T12:44:34;4.27;;;3.03;;
39300;SDS011;25019;42.626;23.380;2022-11-21T12:49:49;4.30;;;3.60;;
39300;SDS011;25019;42.626;23.380;2022-11-21T12:52:41;3.77;;;2.80;;
39300;SDS011;25019;42.626;23.380;2022-11-21T12:55:36;4.07;;;3.20;;
39300;SDS011;25019;42.626;23.380;2022-11-21T13:06:14;3.30;;;2.23;;
39300;SDS011;25019;42.626;23.380;2022-11-21T13:08:43;7.63;;;5.10;;
39300;SDS011;25019;42.626;23.380;2022-11-21T13:25:03;4.93;;;3.23;;
39300;SDS011;25019;42.626;23.380;2022-11-21T13:27:48;6.07;;;3.80;;
39300;SDS011;25019;42.626;23.380;2022-11-21T13:30:15;7.33;;;4.07;;
39300;SDS011;25019;42.626;23.380;2022-11-21T13:32:42;3.60;;;2.90;;
39300;SDS011;25019;42.626;23.380;2022-11-21T13:45:43;4.83;;;3.70;;
39300;SDS011;25019;42.626;23.380;2022-11-21T13:59:37;6.90;;;4.50;;
39300;SDS011;25019;42.626;23.380;2022-11-21T14:05:30;6.07;;;4.50;;
39300;SDS011;25019;42.626;23.380;2022-11-21T14:10:46;6.33;;;4.53;;
39300;SDS011;25019;42.626;23.380;2022-11-21T14:13:16;6.17;;;4.97;;
39300;SDS011;25019;42.626;23.380;2022-11-21T14:18:40;6.40;;;5.20;;
39300;SDS011;25019;42.626;23.380;2022-11-21T14:21:15;8.90;;;5.17;;
39300;SDS011;25019;42.626;23.380;2022-11-21T14:23:56;7.80;;;5.30;;
39300;SDS011;25019;42.626;23.380;2022-11-21T14:26:30;6.07;;;4.60;;
39300;SDS011;25019;42.626;23.380;2022-11-21T14:31:47;5.90;;;4.93;;
39300;SDS011;25019;42.626;23.380;2022-11-21T14:34:22;9.77;;;6.00;;
39300;SDS011;25019;42.626;23.380;2022-11-21T14:36:49;5.90;;;4.60;;
39300;SDS011;25019;42.626;23.380;2022-11-21T14:39:15;7.03;;;5.10;;
39300;SDS011;25019;42.626;23.380;2022-11-21T14:41:43;6.83;;;5.43;;
39300;SDS011;25019;42.626;23.380;2022-11-21T14:44:14;8.43;;;6.00;;
39300;SDS011;25019;42.626;23.380;2022-11-21T14:46:42;6.90;;;5.20;;
39300;SDS011;25019;42.626;23.380;2022-11-21T14:51:45;12.93;;;6.30;;
39300;SDS011;25019;42.626;23.380;2022-11-21T14:57:30;7.70;;;6.03;;
39300;SDS011;25019;42.626;23.380;2022-11-21T15:00:00;8.47;;;6.40;;
39300;SDS011;25019;42.626;23.380;2022-11-21T15:02:30;8.83;;;6.47;;
39300;SDS011;25019;42.626;23.380;2022-11-21T15:05:05;7.20;;;5.93;;
39300;SDS011;25019;42.626;23.380;2022-11-21T15:07:38;7.87;;;6.23;;
39300;SDS011;25019;42.626;23.380;2022-11-21T15:10:16;10.73;;;5.57;;
39300;SDS011;25019;42.626;23.380;2022-11-21T15:17:56;7.50;;;5.67;;
39300;SDS011;25019;42.626;23.380;2022-11-21T15:20:25;6.83;;;4.97;;
39300;SDS011;25019;42.626;23.380;2022-11-21T15:22:56;5.53;;;4.67;;
39300;SDS011;25019;42.626;23.380;2022-11-21T15:25:24;6.23;;;5.07;;
39300;SDS011;25019;42.626;23.380;2022-11-21T15:30:28;5.73;;;4.90;;
39300;SDS011;25019;42.626;23.380;2022-11-21T15:43:33;6.63;;;5.47;;
39300;SDS011;25019;42.626;23.380;2022-11-21T15:46:01;6.47;;;5.10;;
39300;SDS011;25019;42.626;23.380;2022-11-21T15:48:28;6.37;;;5.60;;
39300;SDS011;25019;42.626;23.380;2022-11-21T15:50:55;7.03;;;5.90;;
39300;SDS011;25019;42.626;23.380;2022-11-21T15:53:21;7.13;;;5.93;;
39300;SDS011;25019;42.626;23.380;2022-11-21T15:55:47;8.83;;;7.70;;
39300;SDS011;25019;42.626;23.380;2022-11-21T15:58:12;7.37;;;5.60;;
39300;SDS011;25019;42.626;23.380;2022-11-21T16:00:38;7.10;;;5.90;;
39300;SDS011;25019;42.626;23.380;2022-11-21T16:03:03;5.77;;;5.17;;
39300;SDS011;25019;42.626;23.380;2022-11-21T16:05:29;9.30;;;6.13;;
39300;SDS011;25019;42.626;23.380;2022-11-21T16:07:55;10.87;;;6.40;;
39300;SDS011;25019;42.626;23.380;2022-11-21T16:10:20;6.47;;;5.50;;
39300;SDS011;25019;42.626;23.380;2022-11-21T16:12:46;8.57;;;6.77;;
39300;SDS011;25019;42.626;23.380;2022-11-21T16:15:12;10.10;;;6.37;;
39300;SDS011;25019;42.626;23.380;2022-11-21T16:17:38;10.13;;;6.93;;
39300;SDS011;25019;42.626;23.380;2022-11-21T16:20:05;7.97;;;6.50;;
39300;SDS011;25019;42.626;23.380;2022-11-21T16:22:31;8.37;;;5.97;;
39300;SDS011;25019;42.626;23.380;2022-11-21T16:24:58;10.07;;;7.17;;
39300;SDS011;25019;42.626;23.380;2022-11-21T16:27:23;9.70;;;6.70;;
39300;SDS011;25019;42.626;23.380;2022-11-21T16:29:49;7.57;;;6.03;;
39300;SDS011;25019;42.626;23.380;2022-11-21T16:32:14;8.60;;;6.53;;
39300;SDS011;25019;42.626;23.380;2022-11-21T16:34:40;9.60;;;6.37;;
39300;SDS011;25019;42.626;23.380;2022-11-21T16:37:06;7.27;;;6.10;;
39300;SDS011;25019;42.626;23.380;2022-11-21T16:39:31;7.90;;;6.40;;
39300;SDS011;25019;42.626;23.380;2022-11-21T16:41:57;8.20;;;6.50;;
39300;SDS011;25019;42.626;23.380;2022-11-21T16:44:23;6.93;;;5.80;;
39300;SDS011;25019;42.626;23.380;2022-11-21T16:46:49;7.73;;;6.20;;
39300;SDS011;25019;42.626;23.380;2022-11-21T16:49:18;7.40;;;6.00;;
39300;SDS011;25019;42.626;23.380;2022-11-21T16:51:44;8.37;;;5.90;;
39300;SDS011;25019;42.626;23.380;2022-11-21T16:54:10;7.33;;;5.10;;
39300;SDS011;25019;42.626;23.380;2022-11-21T16:56:35;5.30;;;4.27;;
39300;SDS011;25019;42.626;23.380;2022-11-21T16:59:01;7.00;;;5.07;;
39300;SDS011;25019;42.626;23.380;2022-11-21T17:01:27;4.80;;;3.97;;
39300;SDS011;25019;42.626;23.380;2022-11-21T17:03:52;6.07;;;4.50;;
39300;SDS011;25019;42.626;23.380;2022-11-21T17:06:19;6.17;;;4.80;;
39300;SDS011;25019;42.626;23.380;2022-11-21T17:08:47;7.17;;;5.00;;
39300;SDS011;25019;42.626;23.380;2022-11-21T17:11:17;6.33;;;5.20;;